MSC Ludovica — HPAF — position and weather

sailwx.info

Track history (hours):
 
Tides and Currents Weather Stations Pressure Air Temp Water Temp Dewpoint Dewpoint Depression Visibility Wind Speed Wind Dir Waves Ship Positions

MSC Ludovica

Last reported at 2015-Jul-27 14:32 UTC. Time now 2015-Jul-31 01:06 UTC.
Position N 29°55' W 090°04'.

Length 301 m; draft 10 m.

Type: Ship. MMSI: 351248000.

Date/timePositionNaut miles runAvg speedWind from/ knotsBaromVisibWave heightAir tempDewpointWater temp
2015-Jul-27 14:32N 29°55' W 090°04'3 2.5
2015-Jul-27 13:32N 29°55' W 090°07'1 0.0
2015-Jul-26 14:06N 29°55' W 090°06'4 6.4
2015-Jul-26 13:32N 29°57' W 090°03'9 7.4
2015-Jul-26 12:17N 29°52' W 089°55'7 7.8
2015-Jul-26 11:24N 29°48' W 090°00'7 8.3
2015-Jul-26 10:31N 29°41' W 089°58'30 9.6
2015-Jul-26 07:26N 29°22' W 089°32'  
2015-Jul-19 08:33N 26°00' W 079°23'41 1.4
2015-Jul-18 02:27N 26°40' W 079°11'2 2.0
2015-Jul-18 01:33N 26°41' W 079°10'2 1.6
2015-Jul-18 00:29N 26°40' W 079°12'  
Track history (hours):
 
Tides and Currents Weather Stations Pressure Air Temp Water Temp Dewpoint Dewpoint Depression Visibility Wind Speed Wind Dir Waves Ship Positions

MSC Ludovica

Last reported at 2015-Jul-27 14:32 UTC. Time now 2015-Jul-31 01:06 UTC.
Position N 29°55' W 090°04'.

Length 301 m; draft 10 m.

Type: Ship. MMSI: 351248000.

Date/timePositionNaut miles runAvg speedWind from/ knotsBaromVisibWave heightAir tempDewpointWater temp
2015-Jul-27 14:32N 29°55' W 090°04'3 2.5
2015-Jul-27 13:32N 29°55' W 090°07'1 0.0
2015-Jul-26 14:06N 29°55' W 090°06'4 6.4
2015-Jul-26 13:32N 29°57' W 090°03'9 7.4
2015-Jul-26 12:17N 29°52' W 089°55'7 7.8
2015-Jul-26 11:24N 29°48' W 090°00'7 8.3
2015-Jul-26 10:31N 29°41' W 089°58'30 9.6
2015-Jul-26 07:26N 29°22' W 089°32'  
2015-Jul-19 08:33N 26°00' W 079°23'41 1.4
2015-Jul-18 02:27N 26°40' W 079°11'2 2.0
2015-Jul-18 01:33N 26°41' W 079°10'2 1.6
2015-Jul-18 00:29N 26°40' W 079°12'  

Dump ship's entire track history